Latest Observation

25 Stations

15 Minute Data | America/Los_Angeles
as of 9/5/26 2:29 PM PDT
Station Date Time Temp (°F) RH (%) Dew Pt (°F) Wind Spd (mph) Wind Dir (°) Wind Gust (mph) Latest Rain (In) Daily Rain (In) Daily Min Temp (°F) Daily Max Temp (°F)
Rockpile Upper (Cooley) 9/5/26 1415 72.4   2.2 37   6 44.6   6.4 8.5   2.9 SSE | 164 16.2   3.5 0.00 0.00 48.8   1.4 75.8   4.6
Rockpile Lower (Cooley) 9/5/26 1400 76.0   2.5 34   5 45.8   6.3 4.7   2.0 SSE | 149 10.9   2.5 0.00 0.00 51.9   1.5 77.5   2.4
Cloverdale-East (Ranch 83) 9/5/26 1415 81.1   5.1 - - 3.5   0.1 SE | 133 13.4   3.7 0.00 0.00 50.6   7.1 81.8   3.8
Cloverdale-SE (Ranch 38) 9/5/26 1415 78.5   3.0 32   3 46.5   0.7 7.6   4.0 S | 175 14.6   3.9 0.00 0.00 52.8   2.5 80.6   3.1
Geyserville-North (Hoffman) 9/5/26 1415 80.5   1.2 34   1 49.6   2.1 4.2   2.3 SSE | 151 8.8   2.5 0.00 0.00 44.2   1.3 81.3   0.3
Geyserville (Ranch 3) 9/5/26 1415 80.2   3.3 28   2 44.5   1.2 4.6   0.5 SE | 126 11.3   1.8 0.00 0.00 44.7   2.2 80.3   2.7
Geyserville-East (Ranch 40) 9/5/26 1415 77.4   1.9 36   2 48.5   3.5 10.7   6.7 SSW | 200 16.8   5.8 0.00 0.00 50.2   0.1 78.9   1.3
Geyserville-South (Nervo Station) 9/5/26 1415 78.8   1.6 - - 6.8   3.3 SE | 136 11.5   3.4 0.00 0.00 48.5   0.1 79.6   0.9
Peterson (Ranch 09) 9/5/26 1415 78.5   3.0 31   1 45.1   1.7 3.6   0.6 SSE | 148 9.9   0.2 0.00 0.00 42.5   2.0 79.0   2.3
Crazy Creek Ranch 9/5/26 1415 79.7   2.8 36   2 50.7   3.7 4.7   0.2 SSE | 159 9.9   0.3 0.00 0.00 44.1   2.4 80.1   2.3
Whitton Ranch (201e) 9/5/26 1415 80.7   2.7 31   1 46.8   1.3 4.3   1.6 SSE | 158 11.3   3.0 0.00 0.00 40.4   2.0 81.4   3.0
Lytton East (Shop Hill Bottom) 9/5/26 1415 79.5   1.9 28   2 43.4   0.5 5.9   2.8 SSE | 166 11.2   3.5 0.00 0.00 44.8   0.6 80.2   2.1
Lytton East (Hill 5) 9/5/26 1415 79.3   1.9 29   2 44.1   0.4 7.3   3.3 SSE | 162 11.7   4.0 0.00 0.00 47.2   0.4 80.2   1.2
Lytton West Lower (Lew 6) 9/5/26 1415 79.5   4.3 28   5 43.8   0.5 5.1   1.8 SSE | 151 11.6   2.8 0.00 0.00 45.1   0.5 80.2   4.3
Lytton West Hill (23PS) 9/5/26 1415 78.0   2.2 29   4 43.6   1.2 3.8   1.3 ESE | 102 9.1   2.4 0.00 0.00 48.6   0.2 79.0   2.1
Big River 9/5/26 1415 78.3   2.8 36   1 49.4   1.5 4.0   1.4 SW | 221 9.8   2.7 0.00 0.00 48.0   0.0 79.0   3.0
Jimtown-North (Piccolo Ranch 15) 9/5/26 1415 79.0   2.4 29   1 44.2   3.2 4.1   1.9 SSW | 194 11.4   2.0 0.00 0.00 42.7   4.1 80.1   2.3
HWY 128/Chalk Hill Rd (Landslide) 9/5/26 1300 78.7   3.2 35   5 48.9   1.0 4.2   1.7 SW | 235 11.5   4.8 0.00 0.00 43.8   4.1 79.0   3.1
N Chalk Hill Rd (Ranch 63) 9/5/26 1415 78.0   1.7 30   0 44.5   1.8 5.6   1.9 S | 180 10.6   0.3 0.00 0.00 41.5   5.4 78.7   1.8
Newman Knights Valley 8/18/26 0015 56.2   1.8 85   4 51.7   0.4 0.8   3.5 NE | 55 2.3   5.8 0.00 0.00 55.0   1.2 88.3   0.6
Knights Valley (Bavarian Lion) 9/5/26 1415 77.9   2.1 29   2 43.5   3.5 6.0   1.5 S | 181 9.9   1.0 0.00 0.00 41.1   6.6 79.3   2.7
Red Tail 9/5/26 1415 79.0   2.5 35   2 49.2   0.8 7.1   3.7 SSW | 203 12.3   6.1 0.00 0.00 45.1   0.5 79.9   1.4
Franz Valley (Stornetta) 9/5/26 1415 77.6   2.6 31   3 44.3   0.2 3.5   0.6 SW | 224 8.6   1.4 0.00 0.00 41.8   6.3 78.0   2.5
Upper Dry Creek Valley 9/5/26 1415 80.1   3.4 31   1 47.0   2.1 4.9   0.4 ESE | 118 10.5   2.4 0.00 0.00 44.9   0.6 81.0   3.5
Lower Dry Creek Valley 9/5/26 1415 79.9   3.6 28   4 44.1   0.5 3.1   1.2 SE | 141 12.8   2.0 0.00 0.00 46.8   0.8 80.4   2.4
Max     81.1 37 50.7 10.7 - 16.8 0.00 0.00 52.8 81.8
Avg     78.7 32 45.9 5.4 - 11.5 0.00 - - -
Min     72.4 28 43.4 3.1 - 8.6 0.00 0.00 40.4 75.8